Time;durP1;ratioP1;P1;durP2;ratioP2;P2;SDS_P1;SDS_P2;PMS_P1;PMS_P2;Temp;Humidity;BMP_temperature;BMP_pressure;BME280_temperature;BME280_humidity;BME280_pressure;Samples;Min_cycle;Max_cycle;Signal;HPM_P1;HPM_P2
2024/01/23 00:01:26;;;;;;;12.18;2.72;;;;;;;;;;5010196;28;20080;-82
2024/01/23 00:03:52;;;;;;;20.98;2.80;;;;;;;;;;5026507;28;20111;-82
2024/01/23 00:06:18;;;;;;;22.02;2.67;;;;;;;;;;5010194;28;20072;-81
2024/01/23 00:08:44;;;;;;;15.38;3.50;;;;;;;;;;5027023;28;20103;-80
2024/01/23 00:11:10;;;;;;;11.98;2.50;;;;;;;;;;5018443;28;20486;-81
2024/01/23 00:13:36;;;;;;;15.63;2.60;;;;;;;;;;5038953;28;20038;-81
2024/01/23 00:16:02;;;;;;;15.93;3.05;;;;;;;;;;5028730;28;20045;-80
2024/01/23 00:18:28;;;;;;;13.07;2.22;;;;;;;;;;5027983;28;20045;-81
2024/01/23 00:20:54;;;;;;;11.50;2.95;;;;;;;;;;4993571;28;20045;-81
2024/01/23 00:23:20;;;;;;;8.70;2.60;;;;;;;;;;4992146;28;21181;-82
2024/01/23 00:25:47;;;;;;;13.73;2.70;;;;;;;;;;4993261;28;20076;-81
2024/01/23 00:28:13;;;;;;;15.85;2.80;;;;;;;;;;4997390;28;20456;-81
2024/01/23 00:30:40;;;;;;;14.40;2.88;;;;;;;;;;5004359;28;20797;-81
2024/01/23 00:33:06;;;;;;;15.93;2.67;;;;;;;;;;5002858;28;20056;-81
2024/01/23 00:35:32;;;;;;;11.90;2.40;;;;;;;;;;5027612;28;20050;-81
2024/01/23 00:37:58;;;;;;;10.85;2.50;;;;;;;;;;4993286;28;20057;-81
2024/01/23 00:40:24;;;;;;;18.30;3.70;;;;;;;;;;5027569;28;20139;-81
2024/01/23 00:42:51;;;;;;;12.15;2.15;;;;;;;;;;5027667;28;20132;-81
2024/01/23 00:45:17;;;;;;;11.77;2.38;;;;;;;;;;5009606;28;20052;-81
2024/01/23 00:47:43;;;;;;;12.82;2.35;;;;;;;;;;5027597;28;20041;-80
2024/01/23 00:50:09;;;;;;;13.43;2.70;;;;;;;;;;5027639;28;20098;-81
2024/01/23 00:52:35;;;;;;;12.05;2.38;;;;;;;;;;5027282;28;20045;-81
2024/01/23 00:55:03;;;;;;;12.73;2.50;;;;;;;;;;5008356;28;20049;-80
2024/01/23 00:57:29;;;;;;;17.13;2.25;;;;;;;;;;5009769;28;20251;-81
2024/01/23 00:59:56;;;;;;;16.60;2.60;;;;;;;;;;5007927;28;20061;-81
2024/01/23 01:02:22;;;;;;;12.45;2.45;;;;;;;;;;5025794;28;20049;-81
2024/01/23 01:04:48;;;;;;;11.82;2.90;;;;;;;;;;5009398;28;20089;-81
2024/01/23 01:07:14;;;;;;;15.43;2.80;;;;;;;;;;5009825;28;20162;-81
2024/01/23 01:09:40;;;;;;;12.30;2.42;;;;;;;;;;5008425;28;20169;-81
2024/01/23 01:12:06;;;;;;;12.63;2.45;;;;;;;;;;5027317;28;20128;-81
2024/01/23 01:14:34;;;;;;;17.80;2.80;;;;;;;;;;5026659;28;20144;-81
2024/01/23 01:17:00;;;;;;;10.77;2.60;;;;;;;;;;5009379;28;20158;-80
2024/01/23 01:19:27;;;;;;;10.70;2.65;;;;;;;;;;5027076;28;20136;-81
2024/01/23 01:21:53;;;;;;;12.75;2.80;;;;;;;;;;5027059;28;20534;-81
2024/01/23 01:24:19;;;;;;;12.38;2.50;;;;;;;;;;5026688;28;20136;-80
2024/01/23 01:26:45;;;;;;;15.93;2.30;;;;;;;;;;5025799;28;20053;-81
2024/01/23 01:29:11;;;;;;;9.40;2.15;;;;;;;;;;5026828;28;20092;-81
2024/01/23 01:31:37;;;;;;;16.58;3.45;;;;;;;;;;5025333;28;20041;-81
2024/01/23 01:34:03;;;;;;;14.40;2.85;;;;;;;;;;5008891;28;20060;-81
2024/01/23 01:36:29;;;;;;;12.77;2.63;;;;;;;;;;5026531;28;20414;-81
2024/01/23 01:39:00;;;;;;;15.50;2.67;;;;;;;;;;5026739;28;20053;-81
2024/01/23 01:41:26;;;;;;;10.40;2.17;;;;;;;;;;5027061;28;20068;-80
2024/01/23 01:43:52;;;;;;;13.88;2.78;;;;;;;;;;5028583;28;20041;-81
2024/01/23 01:46:20;;;;;;;14.98;3.15;;;;;;;;;;4996131;28;20037;-81
2024/01/23 01:48:47;;;;;;;15.23;2.92;;;;;;;;;;5035471;28;20557;-81
2024/01/23 01:51:13;;;;;;;16.63;2.83;;;;;;;;;;5046157;28;20095;-81
2024/01/23 01:53:40;;;;;;;16.80;2.80;;;;;;;;;;5012786;28;20061;-80
2024/01/23 01:56:06;;;;;;;10.52;2.33;;;;;;;;;;5030577;28;20033;-81
2024/01/23 01:58:32;;;;;;;18.75;2.67;;;;;;;;;;5030862;28;20134;-81
2024/01/23 02:01:00;;;;;;;15.10;2.75;;;;;;;;;;5029268;28;20048;-81
2024/01/23 02:03:26;;;;;;;13.02;2.95;;;;;;;;;;5012467;28;20049;-82
2024/01/23 02:05:52;;;;;;;12.98;2.80;;;;;;;;;;5030119;28;20107;-81
2024/01/23 02:08:19;;;;;;;15.63;2.83;;;;;;;;;;5010836;28;20057;-81
2024/01/23 02:10:45;;;;;;;15.90;3.53;;;;;;;;;;5031091;28;20044;-81
2024/01/23 02:13:11;;;;;;;17.63;3.10;;;;;;;;;;5011214;28;20107;-81
2024/01/23 02:15:37;;;;;;;14.32;3.25;;;;;;;;;;5012927;28;20038;-81
2024/01/23 02:18:03;;;;;;;13.10;2.90;;;;;;;;;;5011573;28;20099;-81
2024/01/23 02:20:29;;;;;;;12.63;2.90;;;;;;;;;;4996925;28;20138;-80
2024/01/23 02:22:55;;;;;;;14.93;2.60;;;;;;;;;;5029022;28;20411;-81
2024/01/23 02:25:21;;;;;;;19.75;3.70;;;;;;;;;;5028215;28;20104;-81
2024/01/23 02:27:47;;;;;;;11.00;2.58;;;;;;;;;;5011245;28;20045;-81
2024/01/23 02:30:13;;;;;;;14.02;2.83;;;;;;;;;;5012018;28;20046;-81
2024/01/23 02:32:43;;;;;;;15.02;2.95;;;;;;;;;;5030082;28;20057;-80
2024/01/23 02:35:09;;;;;;;17.13;3.40;;;;;;;;;;5038170;28;20156;-80
2024/01/23 02:37:36;;;;;;;15.35;3.13;;;;;;;;;;5012278;28;20057;-81
2024/01/23 02:40:03;;;;;;;15.05;3.08;;;;;;;;;;5011778;28;20496;-81
2024/01/23 02:42:29;;;;;;;12.55;2.22;;;;;;;;;;5011660;28;20057;-81
2024/01/23 02:44:55;;;;;;;11.02;2.40;;;;;;;;;;5029880;28;20107;-80
2024/01/23 02:47:21;;;;;;;18.23;3.28;;;;;;;;;;5012516;28;20141;-81
2024/01/23 02:49:47;;;;;;;15.27;3.15;;;;;;;;;;5038352;28;20624;-81
2024/01/23 02:52:13;;;;;;;16.25;2.83;;;;;;;;;;5037926;28;20081;-81
2024/01/23 02:54:39;;;;;;;16.20;3.25;;;;;;;;;;5010419;28;20072;-81
2024/01/23 02:57:05;;;;;;;15.70;3.00;;;;;;;;;;5029245;28;20041;-81
2024/01/23 02:59:31;;;;;;;15.57;3.13;;;;;;;;;;5029226;28;20850;-81
2024/01/23 03:01:57;;;;;;;16.33;2.80;;;;;;;;;;5035224;28;20053;-80
2024/01/23 03:04:23;;;;;;;14.95;2.85;;;;;;;;;;5018404;28;20148;-81
2024/01/23 03:06:49;;;;;;;9.77;2.85;;;;;;;;;;5028069;28;20054;-81
2024/01/23 03:09:15;;;;;;;15.88;3.25;;;;;;;;;;5010705;28;20156;-80
2024/01/23 03:11:41;;;;;;;14.52;3.53;;;;;;;;;;5029152;28;20065;-81
2024/01/23 03:14:07;;;;;;;11.95;2.97;;;;;;;;;;5029615;28;20128;-81
2024/01/23 03:16:33;;;;;;;14.73;2.65;;;;;;;;;;5028686;28;20053;-81
2024/01/23 03:18:59;;;;;;;12.02;2.80;;;;;;;;;;5029168;28;20049;-81
2024/01/23 03:21:25;;;;;;;12.02;2.60;;;;;;;;;;5029000;28;20103;-81
2024/01/23 03:23:51;;;;;;;16.75;3.03;;;;;;;;;;5028480;28;20053;-81
2024/01/23 03:26:17;;;;;;;13.75;2.70;;;;;;;;;;4993896;28;20086;-81
2024/01/23 03:28:43;;;;;;;16.08;3.50;;;;;;;;;;5011260;28;20147;-80
2024/01/23 03:31:09;;;;;;;12.60;2.72;;;;;;;;;;5027275;28;20033;-81
2024/01/23 03:33:35;;;;;;;14.63;3.45;;;;;;;;;;5022326;28;20053;-81
2024/01/23 03:36:01;;;;;;;14.30;2.78;;;;;;;;;;5028084;28;20071;-81
2024/01/23 03:38:27;;;;;;;17.30;3.65;;;;;;;;;;5028071;28;20495;-81
2024/01/23 03:40:53;;;;;;;15.02;2.85;;;;;;;;;;5028450;28;20899;-80
2024/01/23 03:43:19;;;;;;;17.80;3.25;;;;;;;;;;5024703;28;20544;-81
2024/01/23 03:45:45;;;;;;;13.10;2.30;;;;;;;;;;5010266;28;20141;-80
2024/01/23 03:48:11;;;;;;;16.90;3.28;;;;;;;;;;5010057;28;20125;-81
2024/01/23 03:50:37;;;;;;;18.77;3.38;;;;;;;;;;5028971;28;20056;-80
2024/01/23 03:53:03;;;;;;;18.27;3.35;;;;;;;;;;5028080;28;20041;-80
2024/01/23 03:55:29;;;;;;;12.77;3.17;;;;;;;;;;5029274;28;20045;-81
2024/01/23 03:57:55;;;;;;;19.42;3.50;;;;;;;;;;5028088;28;20156;-81
2024/01/23 04:00:21;;;;;;;15.75;3.53;;;;;;;;;;5028228;28;20468;-81
2024/01/23 04:02:48;;;;;;;15.32;3.33;;;;;;;;;;5010291;28;20058;-81
2024/01/23 04:05:14;;;;;;;17.17;3.45;;;;;;;;;;5027443;28;20511;-81
2024/01/23 04:07:40;;;;;;;21.27;3.75;;;;;;;;;;5027291;28;20068;-81
2024/01/23 04:10:08;;;;;;;12.85;3.42;;;;;;;;;;5028158;28;20053;-81
2024/01/23 04:12:35;;;;;;;15.45;3.67;;;;;;;;;;5028243;28;20041;-81
2024/01/23 04:15:01;;;;;;;14.18;3.00;;;;;;;;;;5010750;28;20044;-81
2024/01/23 04:17:28;;;;;;;12.70;2.92;;;;;;;;;;5027729;28;20135;-81
2024/01/23 04:19:54;;;;;;;15.00;4.28;;;;;;;;;;5009428;28;20556;-81
2024/01/23 04:22:20;;;;;;;18.25;3.85;;;;;;;;;;5009221;28;20045;-81
2024/01/23 04:24:46;;;;;;;14.95;3.42;;;;;;;;;;5028354;28;20057;-81
2024/01/23 04:27:15;;;;;;;19.50;3.38;;;;;;;;;;5027034;28;20701;-81
2024/01/23 04:29:41;;;;;;;12.75;2.88;;;;;;;;;;5009919;28;20436;-81
2024/01/23 04:32:07;;;;;;;13.57;3.00;;;;;;;;;;5018606;28;20060;-81
2024/01/23 04:34:33;;;;;;;18.90;3.65;;;;;;;;;;5010624;28;20041;-81
2024/01/23 04:36:59;;;;;;;16.75;3.92;;;;;;;;;;5025938;28;20045;-81
2024/01/23 04:39:25;;;;;;;18.58;4.05;;;;;;;;;;5028494;28;20041;-81
2024/01/23 04:41:51;;;;;;;18.35;3.47;;;;;;;;;;5026314;28;20041;-81
2024/01/23 04:44:17;;;;;;;20.58;3.95;;;;;;;;;;5010631;28;20045;-81
2024/01/23 04:46:45;;;;;;;19.50;3.50;;;;;;;;;;5036676;28;20042;-81
2024/01/23 04:49:11;;;;;;;22.00;3.90;;;;;;;;;;5009871;28;20077;-81
2024/01/23 04:51:37;;;;;;;20.88;3.67;;;;;;;;;;5026827;28;20081;-81
2024/01/23 04:54:03;;;;;;;17.08;3.42;;;;;;;;;;5010005;28;20054;-81
2024/01/23 04:56:30;;;;;;;12.63;2.97;;;;;;;;;;5009502;28;20053;-81
2024/01/23 04:58:56;;;;;;;18.90;4.05;;;;;;;;;;5016581;28;20061;-81
2024/01/23 05:01:22;;;;;;;15.20;3.70;;;;;;;;;;5021716;28;20118;-81
2024/01/23 05:03:48;;;;;;;12.63;3.33;;;;;;;;;;5026921;28;20069;-81
2024/01/23 05:06:14;;;;;;;18.50;3.40;;;;;;;;;;5032062;28;20053;-81
2024/01/23 05:08:40;;;;;;;17.67;4.28;;;;;;;;;;5026283;28;20052;-80
2024/01/23 05:11:06;;;;;;;23.95;4.35;;;;;;;;;;5027846;28;20045;-80
2024/01/23 05:13:32;;;;;;;19.67;3.90;;;;;;;;;;4992386;28;20111;-81
2024/01/23 05:15:57;;;;;;;12.60;2.97;;;;;;;;;;5027350;28;20049;-80
2024/01/23 05:18:23;;;;;;;17.83;4.18;;;;;;;;;;5012297;28;20041;-80
2024/01/23 05:20:50;;;;;;;15.73;3.10;;;;;;;;;;5012412;28;20041;-81
2024/01/23 05:23:15;;;;;;;21.95;3.63;;;;;;;;;;5030481;28;20683;-81
2024/01/23 05:25:43;;;;;;;17.58;4.22;;;;;;;;;;5031138;28;20119;-81
2024/01/23 05:28:09;;;;;;;19.30;3.63;;;;;;;;;;5013562;28;20053;-81
2024/01/23 05:30:35;;;;;;;14.70;3.85;;;;;;;;;;5013642;28;20450;-81
2024/01/23 05:33:01;;;;;;;21.98;4.22;;;;;;;;;;5029880;28;20037;-81
2024/01/23 05:35:27;;;;;;;18.50;4.30;;;;;;;;;;5034708;28;20048;-82
2024/01/23 05:37:53;;;;;;;30.35;4.43;;;;;;;;;;5030528;28;20041;-81
2024/01/23 05:40:19;;;;;;;19.88;3.80;;;;;;;;;;5028659;28;20446;-81
2024/01/23 05:42:46;;;;;;;22.75;4.50;;;;;;;;;;5019357;28;20124;-81
2024/01/23 05:45:13;;;;;;;19.63;4.50;;;;;;;;;;5008165;28;20049;-81
2024/01/23 05:47:39;;;;;;;24.63;4.72;;;;;;;;;;5030197;28;20053;-81
2024/01/23 05:50:05;;;;;;;19.10;4.18;;;;;;;;;;5012077;28;20095;-81
2024/01/23 05:52:31;;;;;;;18.15;4.20;;;;;;;;;;5030113;28;20048;-81
2024/01/23 05:54:59;;;;;;;22.25;4.15;;;;;;;;;;4996619;28;20554;-81
2024/01/23 05:57:26;;;;;;;20.50;4.20;;;;;;;;;;5035740;28;20045;-81
2024/01/23 05:59:52;;;;;;;20.92;4.15;;;;;;;;;;4996050;28;20050;-81
2024/01/23 06:02:18;;;;;;;27.40;4.70;;;;;;;;;;5024139;28;20168;-80
2024/01/23 06:04:44;;;;;;;22.58;4.28;;;;;;;;;;5030147;28;20419;-81
2024/01/23 06:07:10;;;;;;;17.95;3.25;;;;;;;;;;5011653;28;20060;-81
2024/01/23 06:09:36;;;;;;;20.20;3.83;;;;;;;;;;5028668;28;20503;-81
2024/01/23 06:12:02;;;;;;;23.35;4.10;;;;;;;;;;5011645;28;20099;-81
2024/01/23 06:14:28;;;;;;;20.02;5.03;;;;;;;;;;4996478;28;20076;-81
2024/01/23 06:16:54;;;;;;;26.33;5.30;;;;;;;;;;5030086;28;20041;-81
2024/01/23 06:19:20;;;;;;;19.10;4.60;;;;;;;;;;5029867;28;20499;-81
2024/01/23 06:21:46;;;;;;;20.52;4.82;;;;;;;;;;5011356;28;20415;-81
2024/01/23 06:24:12;;;;;;;26.20;4.00;;;;;;;;;;5027350;28;20128;-81
2024/01/23 06:26:38;;;;;;;23.73;4.78;;;;;;;;;;5029660;28;20037;-81
2024/01/23 06:29:04;;;;;;;26.40;4.45;;;;;;;;;;4999640;28;20117;-81
2024/01/23 06:31:30;;;;;;;25.90;4.28;;;;;;;;;;5016213;28;20068;-80
2024/01/23 06:33:57;;;;;;;21.73;4.93;;;;;;;;;;5029644;28;20053;-81
2024/01/23 06:36:23;;;;;;;24.05;5.10;;;;;;;;;;5029373;28;20095;-81
2024/01/23 06:38:49;;;;;;;22.50;3.97;;;;;;;;;;5008695;28;20049;-81
2024/01/23 06:41:15;;;;;;;26.67;5.10;;;;;;;;;;5012843;28;20050;-81
2024/01/23 06:43:41;;;;;;;23.60;4.05;;;;;;;;;;5034133;28;20095;-80
2024/01/23 06:46:07;;;;;;;19.90;4.13;;;;;;;;;;5045833;28;20053;-81
2024/01/23 06:48:33;;;;;;;27.23;5.38;;;;;;;;;;5010011;28;20553;-81
2024/01/23 06:50:59;;;;;;;32.65;4.85;;;;;;;;;;5011053;28;20060;-81
2024/01/23 06:53:25;;;;;;;20.73;3.92;;;;;;;;;;5011156;28;20041;-81
2024/01/23 06:55:51;;;;;;;28.10;5.05;;;;;;;;;;5032188;28;20048;-81
2024/01/23 06:58:17;;;;;;;26.23;4.65;;;;;;;;;;5040064;28;20060;-81
2024/01/23 07:00:43;;;;;;;23.33;3.95;;;;;;;;;;5006832;28;20073;-80
2024/01/23 07:03:10;;;;;;;23.15;4.72;;;;;;;;;;5047663;28;20077;-81
2024/01/23 07:05:36;;;;;;;21.38;4.18;;;;;;;;;;5024389;28;20049;-81
2024/01/23 07:08:06;;;;;;;26.10;5.07;;;;;;;;;;5011075;28;20073;-81
2024/01/23 07:10:32;;;;;;;20.63;4.68;;;;;;;;;;5001249;28;20113;-81
2024/01/23 07:12:58;;;;;;;27.60;4.15;;;;;;;;;;5011954;28;20111;-80
2024/01/23 07:15:24;;;;;;;26.33;4.68;;;;;;;;;;5011221;28;20519;-81
2024/01/23 07:17:51;;;;;;;21.98;4.15;;;;;;;;;;5011999;28;20124;-81
2024/01/23 07:20:18;;;;;;;30.88;4.93;;;;;;;;;;5029318;28;20045;-81
2024/01/23 07:22:44;;;;;;;23.50;4.07;;;;;;;;;;5029194;28;20144;-81
2024/01/23 07:25:10;;;;;;;17.60;4.20;;;;;;;;;;5034939;28;20140;-81
2024/01/23 07:27:36;;;;;;;21.33;4.47;;;;;;;;;;5025134;28;20053;-81
2024/01/23 07:30:02;;;;;;;24.77;4.35;;;;;;;;;;5028904;28;20107;-81
2024/01/23 07:32:28;;;;;;;22.27;4.30;;;;;;;;;;5028938;28;20361;-81
2024/01/23 07:34:54;;;;;;;23.42;4.72;;;;;;;;;;5029436;28;20399;-81
2024/01/23 07:37:20;;;;;;;23.55;5.18;;;;;;;;;;5010854;28;20107;-80
2024/01/23 07:39:49;;;;;;;23.70;4.53;;;;;;;;;;5028703;28;20067;-82
2024/01/23 07:42:15;;;;;;;22.48;4.47;;;;;;;;;;5010896;28;20099;-80
2024/01/23 07:44:42;;;;;;;22.77;4.40;;;;;;;;;;5010407;28;20045;-80
2024/01/23 07:47:08;;;;;;;23.80;4.10;;;;;;;;;;5029117;28;20048;-81
2024/01/23 07:49:34;;;;;;;23.08;5.10;;;;;;;;;;5011524;28;20045;-80
2024/01/23 07:52:01;;;;;;;26.80;5.53;;;;;;;;;;5010938;28;20089;-80
2024/01/23 07:54:27;;;;;;;24.27;4.57;;;;;;;;;;5028869;28;20462;-81
2024/01/23 07:56:53;;;;;;;23.13;4.18;;;;;;;;;;5011619;28;20849;-80
2024/01/23 07:59:19;;;;;;;22.63;5.03;;;;;;;;;;5029150;28;20399;-82
2024/01/23 08:01:45;;;;;;;21.52;4.70;;;;;;;;;;5028912;28;20132;-81
2024/01/23 08:04:11;;;;;;;29.35;5.20;;;;;;;;;;5028167;28;20136;-81
2024/01/23 08:06:37;;;;;;;29.80;5.63;;;;;;;;;;5035822;28;20056;-81
2024/01/23 08:09:04;;;;;;;24.38;4.40;;;;;;;;;;5019542;28;20057;-80
2024/01/23 08:11:31;;;;;;;22.55;3.90;;;;;;;;;;4993683;28;20071;-80
2024/01/23 08:13:57;;;;;;;20.85;4.35;;;;;;;;;;5028967;28;20929;-79
2024/01/23 08:16:25;;;;;;;23.38;4.22;;;;;;;;;;5028005;28;20033;-80
2024/01/23 08:18:51;;;;;;;21.85;4.40;;;;;;;;;;5026846;28;20496;-81
2024/01/23 08:21:17;;;;;;;20.65;4.40;;;;;;;;;;4992760;28;20114;-80
2024/01/23 08:23:43;;;;;;;23.80;4.13;;;;;;;;;;5008862;28;20094;-80
2024/01/23 08:26:10;;;;;;;21.10;4.45;;;;;;;;;;5026668;28;20132;-80
2024/01/23 08:28:37;;;;;;;18.35;3.90;;;;;;;;;;5009414;28;20553;-80
2024/01/23 08:31:03;;;;;;;23.75;5.03;;;;;;;;;;5009182;28;20420;-80
2024/01/23 08:33:30;;;;;;;20.45;4.80;;;;;;;;;;5027275;28;20056;-80
2024/01/23 08:35:57;;;;;;;25.30;5.15;;;;;;;;;;5028256;28;20049;-80
2024/01/23 08:38:23;;;;;;;30.05;5.20;;;;;;;;;;5010078;28;20049;-80
2024/01/23 08:40:49;;;;;;;23.63;4.80;;;;;;;;;;4993212;28;20883;-80
2024/01/23 08:43:15;;;;;;;20.92;3.97;;;;;;;;;;5028209;28;20132;-80
2024/01/23 08:45:41;;;;;;;28.92;4.68;;;;;;;;;;4993742;28;20049;-80
2024/01/23 08:48:07;;;;;;;25.42;4.43;;;;;;;;;;5028092;28;20041;-80
2024/01/23 08:50:33;;;;;;;22.42;4.80;;;;;;;;;;5010566;28;20041;-80
2024/01/23 08:52:59;;;;;;;25.25;5.03;;;;;;;;;;5027413;28;20096;-80
2024/01/23 08:55:25;;;;;;;23.85;4.20;;;;;;;;;;5028202;28;20046;-80
2024/01/23 08:57:51;;;;;;;18.45;4.03;;;;;;;;;;5010303;28;20733;-81
2024/01/23 09:00:17;;;;;;;23.48;5.00;;;;;;;;;;5027619;28;20068;-84
2024/01/23 09:02:43;;;;;;;22.90;4.15;;;;;;;;;;5010139;28;20060;-84
2024/01/23 09:05:09;;;;;;;23.77;4.75;;;;;;;;;;5027546;28;20045;-84
2024/01/23 09:07:35;;;;;;;19.85;4.30;;;;;;;;;;5009733;28;20052;-82
2024/01/23 09:10:01;;;;;;;17.80;3.83;;;;;;;;;;5027625;28;20120;-82
2024/01/23 09:12:29;;;;;;;19.08;3.63;;;;;;;;;;5010451;28;20505;-81
2024/01/23 09:14:55;;;;;;;23.20;4.25;;;;;;;;;;5009145;28;20129;-83
2024/01/23 09:17:21;;;;;;;22.95;4.07;;;;;;;;;;5007013;28;20119;-82
2024/01/23 09:19:47;;;;;;;21.95;4.97;;;;;;;;;;5015177;28;20673;-82
2024/01/23 09:22:14;;;;;;;24.30;4.15;;;;;;;;;;5008710;28;20049;-83
2024/01/23 09:24:41;;;;;;;22.33;4.32;;;;;;;;;;4994462;28;20037;-82
2024/01/23 09:27:07;;;;;;;23.80;4.63;;;;;;;;;;5007341;28;20527;-82
2024/01/23 09:29:33;;;;;;;24.52;4.47;;;;;;;;;;5026949;28;20045;-82
2024/01/23 09:31:59;;;;;;;23.52;4.50;;;;;;;;;;5009730;28;20087;-81
2024/01/23 09:34:26;;;;;;;25.50;5.28;;;;;;;;;;5028102;28;20049;-82
2024/01/23 09:36:52;;;;;;;18.45;3.80;;;;;;;;;;5011103;28;20049;-82
2024/01/23 09:39:18;;;;;;;24.60;4.72;;;;;;;;;;5026390;28;20565;-81
2024/01/23 09:41:48;;;;;;;24.02;4.40;;;;;;;;;;5047522;28;20040;-82
2024/01/23 09:44:14;;;;;;;19.60;4.30;;;;;;;;;;5011033;28;20518;-82
2024/01/23 09:46:41;;;;;;;29.52;4.50;;;;;;;;;;5027260;28;20104;-83
2024/01/23 09:49:07;;;;;;;20.35;4.18;;;;;;;;;;5009761;28;20053;-82
2024/01/23 09:51:35;;;;;;;25.70;4.63;;;;;;;;;;5009115;28;20665;-81
2024/01/23 09:54:01;;;;;;;24.85;5.10;;;;;;;;;;5008180;28;20041;-80
2024/01/23 09:56:28;;;;;;;26.48;5.22;;;;;;;;;;5029494;28;20052;-81
2024/01/23 09:58:54;;;;;;;32.00;5.82;;;;;;;;;;5029322;28;20041;-81
2024/01/23 10:01:21;;;;;;;19.17;5.00;;;;;;;;;;5047073;28;20113;-81
2024/01/23 10:03:49;;;;;;;27.20;5.85;;;;;;;;;;5030543;28;20322;-81
2024/01/23 10:06:16;;;;;;;22.15;5.05;;;;;;;;;;5029156;28;20124;-81
2024/01/23 10:08:42;;;;;;;21.50;4.38;;;;;;;;;;5040473;28;20048;-82
2024/01/23 10:11:10;;;;;;;14.90;3.85;;;;;;;;;;5032459;28;20044;-81
2024/01/23 10:13:39;;;;;;;17.35;4.20;;;;;;;;;;5027713;28;20094;-81
2024/01/23 10:16:07;;;;;;;29.08;4.53;;;;;;;;;;5012718;28;20050;-84
2024/01/23 10:18:33;;;;;;;26.25;4.97;;;;;;;;;;5012319;28;20389;-81
2024/01/23 10:20:59;;;;;;;21.48;4.55;;;;;;;;;;5012439;28;20110;-81
2024/01/23 10:23:26;;;;;;;19.35;4.35;;;;;;;;;;5012700;28;20052;-81
2024/01/23 10:25:54;;;;;;;26.98;4.68;;;;;;;;;;5017696;28;20106;-81
2024/01/23 10:28:22;;;;;;;24.90;5.07;;;;;;;;;;5009938;28;20124;-81
2024/01/23 10:30:48;;;;;;;23.75;4.63;;;;;;;;;;5009267;28;20104;-81
2024/01/23 10:33:14;;;;;;;25.25;4.78;;;;;;;;;;5010230;28;20042;-81
2024/01/23 10:35:44;;;;;;;21.42;4.68;;;;;;;;;;5021198;28;20056;-80
2024/01/23 10:38:14;;;;;;;27.20;5.35;;;;;;;;;;5027995;28;20388;-81
2024/01/23 10:40:40;;;;;;;22.98;4.07;;;;;;;;;;5029814;28;20494;-81
2024/01/23 10:43:07;;;;;;;30.55;5.88;;;;;;;;;;5012072;28;20049;-81
2024/01/23 10:45:35;;;;;;;19.80;4.15;;;;;;;;;;5030119;28;20049;-82
2024/01/23 10:48:02;;;;;;;27.58;4.22;;;;;;;;;;5030340;28;20052;-80
2024/01/23 10:50:29;;;;;;;24.50;5.60;;;;;;;;;;5028925;28;20045;-79
2024/01/23 10:53:00;;;;;;;25.58;4.55;;;;;;;;;;5029085;28;20590;-80
2024/01/23 10:55:28;;;;;;;21.88;4.32;;;;;;;;;;5029449;28;20045;-79
2024/01/23 10:57:56;;;;;;;20.92;4.28;;;;;;;;;;5029675;28;20068;-80
2024/01/23 11:00:23;;;;;;;33.50;5.30;;;;;;;;;;5029434;28;20049;-80
2024/01/23 11:02:56;;;;;;;27.42;4.30;;;;;;;;;;5029555;28;20120;-81
2024/01/23 11:05:25;;;;;;;27.02;4.85;;;;;;;;;;4991155;28;20803;-80
2024/01/23 11:07:59;;;;;;;19.95;4.40;;;;;;;;;;5018905;28;20375;-81
2024/01/23 11:10:28;;;;;;;25.90;4.45;;;;;;;;;;4994980;28;20100;-80
2024/01/23 11:13:10;;;;;;;19.23;4.22;;;;;;;;;;5024916;28;20114;-81
2024/01/23 11:15:36;;;;;;;26.55;4.50;;;;;;;;;;5038579;28;20053;-80
2024/01/23 11:18:22;;;;;;;22.45;4.28;;;;;;;;;;5011288;28;20112;-81
2024/01/23 11:21:09;;;;;;;16.88;4.00;;;;;;;;;;5009557;28;20095;-80
2024/01/23 11:23:39;;;;;;;18.73;4.72;;;;;;;;;;5018711;28;20048;-81
2024/01/23 11:26:08;;;;;;;17.00;3.80;;;;;;;;;;5029359;28;20041;-80
2024/01/23 11:28:35;;;;;;;22.63;4.25;;;;;;;;;;5025812;28;20056;-81
2024/01/23 11:31:08;;;;;;;23.25;4.53;;;;;;;;;;5027437;28;20050;-80
2024/01/23 11:33:34;;;;;;;;;;;;;;;;;;5010604;28;20045;-79
2024/01/23 11:36:14;;;;;;;21.05;3.50;;;;;;;;;;5047113;28;20306;-81
2024/01/23 11:38:43;;;;;;;18.98;4.30;;;;;;;;;;4994350;28;20076;-81
2024/01/23 11:41:13;;;;;;;18.55;3.78;;;;;;;;;;5009427;28;20092;-81
2024/01/23 11:43:40;;;;;;;20.83;3.85;;;;;;;;;;4994317;28;20499;-80
2024/01/23 11:46:12;;;;;;;20.52;4.18;;;;;;;;;;5024429;28;20095;-80
2024/01/23 11:48:39;;;;;;;20.95;4.20;;;;;;;;;;5015639;28;20049;-81
2024/01/23 11:51:05;;;;;;;21.23;3.97;;;;;;;;;;5028799;28;20052;-80
2024/01/23 11:53:34;;;;;;;22.58;4.18;;;;;;;;;;5028340;28;20045;-81
2024/01/23 11:56:02;;;;;;;21.52;4.20;;;;;;;;;;5026930;28;20477;-80
2024/01/23 11:58:28;;;;;;;19.95;4.50;;;;;;;;;;4993943;28;20034;-81
2024/01/23 12:00:55;;;;;;;20.05;4.13;;;;;;;;;;5010593;28;20049;-80
2024/01/23 12:03:21;;;;;;;26.13;4.30;;;;;;;;;;5028201;28;20096;-80
2024/01/23 12:05:48;;;;;;;22.80;4.55;;;;;;;;;;5010541;28;20061;-80
2024/01/23 12:08:14;;;;;;;20.20;4.40;;;;;;;;;;5010114;28;20069;-80
2024/01/23 12:10:40;;;;;;;29.70;5.22;;;;;;;;;;5010216;28;20037;-80
2024/01/23 12:13:07;;;;;;;22.17;4.45;;;;;;;;;;5028490;28;20045;-80
2024/01/23 12:15:33;;;;;;;19.23;4.25;;;;;;;;;;5022025;28;20415;-80
2024/01/23 12:17:59;;;;;;;19.50;3.70;;;;;;;;;;5006091;28;20466;-80
2024/01/23 12:20:25;;;;;;;21.90;4.20;;;;;;;;;;5027424;28;20133;-79
2024/01/23 12:22:51;;;;;;;24.35;4.53;;;;;;;;;;5028127;28;20041;-80
2024/01/23 12:25:17;;;;;;;21.98;4.30;;;;;;;;;;4993655;28;20057;-80
2024/01/23 12:27:44;;;;;;;22.58;4.15;;;;;;;;;;5008590;28;20065;-80
2024/01/23 12:30:12;;;;;;;21.80;4.43;;;;;;;;;;5026805;28;20538;-81
2024/01/23 12:32:38;;;;;;;19.17;3.70;;;;;;;;;;5028400;28;20065;-80
2024/01/23 12:35:07;;;;;;;21.92;5.07;;;;;;;;;;5008940;28;20057;-80
2024/01/23 12:37:34;;;;;;;25.02;5.65;;;;;;;;;;5025898;28;20171;-81
2024/01/23 12:40:08;;;;;;;23.63;4.72;;;;;;;;;;5026461;28;20049;-80
2024/01/23 12:42:34;;;;;;;23.05;4.30;;;;;;;;;;5025054;28;20103;-80
2024/01/23 12:45:01;;;;;;;21.33;4.15;;;;;;;;;;5008597;28;20061;-80
2024/01/23 12:47:28;;;;;;;22.95;4.25;;;;;;;;;;5007987;28;20384;-80
2024/01/23 12:49:54;;;;;;;20.88;4.53;;;;;;;;;;5027894;28;20041;-80
2024/01/23 12:52:20;;;;;;;19.23;4.90;;;;;;;;;;5027525;28;20388;-80
2024/01/23 12:54:46;;;;;;;19.75;4.10;;;;;;;;;;5009245;28;20098;-80
2024/01/23 12:57:12;;;;;;;20.60;3.90;;;;;;;;;;5028285;28;20128;-80
2024/01/23 12:59:39;;;;;;;28.27;5.22;;;;;;;;;;5027710;28;20466;-80
2024/01/23 13:02:07;;;;;;;21.10;4.30;;;;;;;;;;5012070;28;20076;-80
2024/01/23 13:04:33;;;;;;;25.67;4.22;;;;;;;;;;5023478;28;20045;-80
2024/01/23 13:06:59;;;;;;;22.02;4.18;;;;;;;;;;5027939;28;20054;-80
2024/01/23 13:09:25;;;;;;;15.30;4.05;;;;;;;;;;5027532;28;20049;-80
2024/01/23 13:11:52;;;;;;;16.40;4.05;;;;;;;;;;5026800;28;20402;-80
2024/01/23 13:14:18;;;;;;;18.52;4.78;;;;;;;;;;5018123;28;20056;-79
2024/01/23 13:16:44;;;;;;;16.77;3.60;;;;;;;;;;5027711;28;20041;-80
2024/01/23 13:19:10;;;;;;;18.80;3.85;;;;;;;;;;5026913;28;20518;-80
2024/01/23 13:21:36;;;;;;;18.85;4.50;;;;;;;;;;5009621;28;20046;-80
2024/01/23 13:24:02;;;;;;;19.73;3.95;;;;;;;;;;5009517;28;20045;-79
2024/01/23 13:26:28;;;;;;;16.75;3.72;;;;;;;;;;4994068;28;20104;-80
2024/01/23 13:28:54;;;;;;;21.38;3.63;;;;;;;;;;5027697;28;20038;-81
2024/01/23 13:31:21;;;;;;;23.00;4.40;;;;;;;;;;5027905;28;20121;-80
2024/01/23 13:33:47;;;;;;;19.02;3.97;;;;;;;;;;5026573;28;20057;-80
2024/01/23 13:36:14;;;;;;;18.50;4.10;;;;;;;;;;5027801;28;20048;-79
2024/01/23 13:38:40;;;;;;;22.65;5.07;;;;;;;;;;5028969;28;20046;-80
2024/01/23 13:41:06;;;;;;;20.08;4.82;;;;;;;;;;5013848;28;20048;-79
2024/01/23 13:43:32;;;;;;;24.98;5.30;;;;;;;;;;5013161;28;20381;-79
2024/01/23 13:46:01;;;;;;;23.60;5.45;;;;;;;;;;5031462;28;20519;-85
2024/01/23 13:48:27;;;;;;;17.80;4.78;;;;;;;;;;5020403;28;20526;-84
2024/01/23 13:50:53;;;;;;;20.42;5.72;;;;;;;;;;5026368;28;20045;-82
2024/01/23 13:53:19;;;;;;;19.92;5.32;;;;;;;;;;5011331;28;20054;-82
2024/01/23 13:55:45;;;;;;;20.42;4.18;;;;;;;;;;5028785;28;20052;-79
2024/01/23 13:58:11;;;;;;;15.50;3.97;;;;;;;;;;5013430;28;20053;-81
2024/01/23 14:00:37;;;;;;;20.85;3.67;;;;;;;;;;5031564;28;20514;-82
2024/01/23 14:03:04;;;;;;;21.50;4.20;;;;;;;;;;5029500;28;20094;-82
2024/01/23 14:05:30;;;;;;;18.52;4.55;;;;;;;;;;5028651;28;20045;-81
2024/01/23 14:07:56;;;;;;;20.27;4.25;;;;;;;;;;5023893;28;20053;-82
2024/01/23 14:10:22;;;;;;;18.42;4.43;;;;;;;;;;5013620;28;20049;-80
2024/01/23 14:12:49;;;;;;;19.95;4.57;;;;;;;;;;5016830;28;20057;-82
2024/01/23 14:15:16;;;;;;;22.63;4.03;;;;;;;;;;5016655;28;20140;-81
2024/01/23 14:17:43;;;;;;;18.00;4.03;;;;;;;;;;5002575;28;20041;-81
2024/01/23 14:20:12;;;;;;;18.33;4.30;;;;;;;;;;5012332;28;20048;-81
2024/01/23 14:22:44;;;;;;;20.23;4.60;;;;;;;;;;5013221;28;20480;-83
2024/01/23 14:25:10;;;;;;;14.85;3.70;;;;;;;;;;5030962;28;20075;-83
2024/01/23 14:27:40;;;;;;;14.20;3.50;;;;;;;;;;4995147;28;20184;-84